Time;durP1;ratioP1;P1;durP2;ratioP2;P2;SDS_P1;SDS_P2;PMS_P1;PMS_P2;Temp;Humidity;BMP_temperature;BMP_pressure;BME280_temperature;BME280_humidity;BME280_pressure;Samples;Min_cycle;Max_cycle;Signal;HPM_P1;HPM_P2
2021/10/18 00:02:14;;;;;;;;;33.00;30.25;;;;;10.78;65.30;101949.13;5063307;28;47037;-77
2021/10/18 00:04:39;;;;;;;;;36.50;31.75;;;;;10.73;65.15;101940.44;5062874;28;45658;-77
2021/10/18 00:07:04;;;;;;;;;34.00;28.75;;;;;10.67;65.10;101938.75;5071156;28;45518;-77
2021/10/18 00:09:30;;;;;;;;;32.25;29.75;;;;;10.69;65.26;101951.91;5081577;28;45478;-77
2021/10/18 00:11:55;;;;;;;;;28.75;28.00;;;;;10.67;65.29;101940.50;5081003;28;45479;-76
2021/10/18 00:14:21;;;;;;;;;35.75;30.00;;;;;10.65;65.27;101940.53;5085236;27;45383;-76
2021/10/18 00:16:46;;;;;;;;;33.00;29.25;;;;;10.62;65.22;101939.72;5081396;28;45566;-76
2021/10/18 00:19:12;;;;;;;;;37.50;30.50;;;;;10.60;65.28;101938.84;5081313;28;45337;-77
2021/10/18 00:21:39;;;;;;;;;32.50;29.25;;;;;10.60;65.68;101939.72;5081542;28;45537;-77
2021/10/18 00:24:06;;;;;;;;;26.75;26.25;;;;;10.60;65.40;101949.38;5079798;27;45483;-77
2021/10/18 00:26:31;;;;;;;;;27.75;27.25;;;;;10.56;65.42;101948.56;5076218;28;45242;-77
2021/10/18 00:28:57;;;;;;;;;29.50;25.25;;;;;10.54;65.18;101951.19;5081401;28;45270;-77
2021/10/18 00:31:22;;;;;;;;;26.50;25.75;;;;;10.51;65.41;101946.00;5080870;28;45255;-77
2021/10/18 00:33:48;;;;;;;;;35.25;30.75;;;;;10.51;65.35;101950.38;5080976;27;45419;-77
2021/10/18 00:36:14;;;;;;;;;30.00;25.25;;;;;10.49;65.44;101945.13;5055348;28;45439;-77
2021/10/18 00:38:39;;;;;;;;;31.00;27.50;;;;;10.44;65.50;101947.81;5081019;28;45266;-79
2021/10/18 00:41:05;;;;;;;;;31.00;28.50;;;;;10.41;65.63;101944.34;5080388;28;45824;-77
2021/10/18 00:43:30;;;;;;;;;29.50;27.50;;;;;10.45;65.52;101948.66;5081117;27;45441;-77
2021/10/18 00:45:56;;;;;;;;;30.25;28.75;;;;;10.45;65.49;101953.91;5065688;28;45320;-74
2021/10/18 00:48:21;;;;;;;;;35.00;27.50;;;;;10.41;65.67;101946.97;5079437;28;45327;-77
2021/10/18 00:50:47;;;;;;;;;29.25;26.50;;;;;10.35;65.61;101953.16;5080055;28;45423;-75
2021/10/18 00:53:13;;;;;;;;;28.25;26.00;;;;;10.35;65.72;101956.66;5080762;27;45287;-75
2021/10/18 00:55:39;;;;;;;;;32.00;26.25;;;;;10.35;65.83;101953.16;5079747;28;45336;-75
2021/10/18 00:58:05;;;;;;;;;33.25;30.00;;;;;10.33;66.04;101966.34;5080553;28;45254;-75
2021/10/18 01:00:30;;;;;;;;;40.50;30.50;;;;;10.32;66.12;101956.69;5079718;28;48440;-75
2021/10/18 01:02:56;;;;;;;;;30.50;28.00;;;;;10.28;66.20;101949.75;5080252;27;45335;-75
2021/10/18 01:05:21;;;;;;;;;35.50;29.00;;;;;10.30;66.06;101957.59;5073521;28;45788;-75
2021/10/18 01:07:49;;;;;;;;;30.25;29.75;;;;;10.27;65.93;101953.28;5080590;28;45499;-75
2021/10/18 01:10:14;;;;;;;;;37.25;31.75;;;;;10.30;65.98;101958.47;5079413;28;45472;-74
2021/10/18 01:12:39;;;;;;;;;33.00;31.25;;;;;10.27;66.22;101963.78;5080368;27;45395;-75
2021/10/18 01:15:05;;;;;;;;;36.75;31.25;;;;;10.28;66.36;101960.25;5094049;27;45378;-75
2021/10/18 01:17:30;;;;;;;;;31.50;29.25;;;;;10.28;66.43;101965.50;5080195;28;45412;-75
2021/10/18 01:19:56;;;;;;;;;34.50;31.25;;;;;10.31;66.55;101969.88;5080443;28;45416;-75
2021/10/18 01:22:21;;;;;;;;;35.25;31.50;;;;;10.29;66.46;101961.13;5061011;28;46830;-76
2021/10/18 01:24:48;;;;;;;;;32.75;26.25;;;;;10.28;66.67;101964.63;5080339;28;45410;-75
2021/10/18 01:27:14;;;;;;;;;31.00;28.00;;;;;10.30;66.37;101970.75;5080003;28;45338;-75
2021/10/18 01:29:40;;;;;;;;;34.75;31.50;;;;;10.27;66.24;101962.91;5079029;28;45542;-75
2021/10/18 01:32:06;;;;;;;;;30.25;24.75;;;;;10.24;66.45;101958.56;5086788;27;45477;-75
2021/10/18 01:34:32;;;;;;;;;34.75;30.00;;;;;10.21;66.65;101948.97;5091117;27;45415;-76
2021/10/18 01:37:00;;;;;;;;;31.75;26.25;;;;;10.23;66.66;101954.19;5084699;27;45516;-76
2021/10/18 01:39:26;;;;;;;;;36.00;30.25;;;;;10.25;66.37;101960.28;5071330;28;46214;-76
2021/10/18 01:41:52;;;;;;;;;32.50;23.25;;;;;10.21;66.55;101954.22;5061633;28;45887;-76
2021/10/18 01:44:17;;;;;;;;;33.25;29.25;;;;;10.20;66.45;101957.72;5080119;28;45460;-75
2021/10/18 01:46:43;;;;;;;;;30.75;26.75;;;;;10.19;66.38;101960.38;5072568;28;45577;-75
2021/10/18 01:49:09;;;;;;;;;29.25;28.75;;;;;10.17;66.67;101952.53;5073055;28;45373;-75
2021/10/18 01:51:34;;;;;;;;;28.00;25.25;;;;;10.18;66.50;101950.75;5062632;28;45251;-74
2021/10/18 01:54:00;;;;;;;;;28.50;27.25;;;;;10.13;66.63;101943.78;5080111;27;45536;-75
2021/10/18 01:56:25;;;;;;;;;30.50;24.25;;;;;10.15;66.95;101948.16;5057394;28;46741;-75
2021/10/18 01:58:51;;;;;;;;;28.00;25.00;;;;;10.12;66.71;101941.19;5059578;28;46185;-74
2021/10/18 02:01:16;;;;;;;;;36.75;32.00;;;;;10.11;66.83;101931.56;5058748;28;45707;-73
2021/10/18 02:03:41;;;;;;;;;33.50;25.00;;;;;10.13;66.87;101937.66;5059430;28;45197;-73
2021/10/18 02:06:11;;;;;;;;;30.50;27.25;;;;;10.13;67.00;101935.03;5057873;28;45363;-73
2021/10/18 02:08:39;;;;;;;;;28.50;26.50;;;;;10.11;67.00;101932.44;5059569;28;46371;-73
2021/10/18 02:11:05;;;;;;;;;37.50;27.00;;;;;10.12;67.22;101944.66;5059080;28;45235;-73
2021/10/18 02:13:31;;;;;;;;;38.75;31.50;;;;;10.13;67.17;101950.78;5057669;28;45287;-73
2021/10/18 02:15:56;;;;;;;;;29.25;27.00;;;;;10.11;67.28;101948.19;5057276;28;45492;-74
2021/10/18 02:18:22;;;;;;;;;35.25;31.75;;;;;10.11;67.29;101942.06;5050653;28;45286;-73
2021/10/18 02:20:48;;;;;;;;;33.75;30.75;;;;;10.12;67.07;101938.56;5059250;28;45382;-74
2021/10/18 02:23:14;;;;;;;;;34.00;30.50;;;;;10.11;67.20;101936.81;5059062;28;45347;-74
2021/10/18 02:25:39;;;;;;;;;29.25;29.25;;;;;10.10;66.50;101941.19;5059343;28;45325;-74
2021/10/18 02:28:04;;;;;;;;;36.00;32.75;;;;;10.08;67.11;101942.97;5045041;28;46320;-74
2021/10/18 02:30:30;;;;;;;;;29.25;27.75;;;;;10.05;67.37;101940.38;5067343;28;45321;-74
2021/10/18 02:32:56;;;;;;;;;32.00;26.75;;;;;10.06;67.47;101934.25;5063527;28;45306;-74
2021/10/18 02:35:21;;;;;;;;;29.25;28.50;;;;;10.05;67.20;101929.03;5058209;28;45666;-74
2021/10/18 02:37:47;;;;;;;;;35.75;30.25;;;;;10.06;67.33;101942.13;5059108;28;45431;-72
2021/10/18 02:40:12;;;;;;;;;30.25;29.50;;;;;10.04;67.37;101930.78;5067464;28;45322;-75
2021/10/18 02:42:38;;;;;;;;;29.75;25.75;;;;;10.06;67.54;101929.00;5065613;28;45194;-74
2021/10/18 02:45:07;;;;;;;;;33.50;28.75;;;;;10.04;67.09;101927.25;5053500;28;46229;-74
2021/10/18 02:47:33;;;;;;;;;34.00;31.50;;;;;10.03;67.31;101923.75;5062222;28;46130;-73
2021/10/18 02:49:58;;;;;;;;;34.50;30.50;;;;;10.04;67.46;101932.53;5062425;28;45243;-73
2021/10/18 02:52:23;;;;;;;;;33.50;31.75;;;;;10.04;67.48;101925.50;5062498;28;45501;-74
2021/10/18 02:54:49;;;;;;;;;38.75;30.25;;;;;10.02;67.46;101925.50;5060761;28;45362;-73
2021/10/18 02:57:14;;;;;;;;;25.50;24.50;;;;;10.02;67.34;101920.25;5079728;28;45267;-73
2021/10/18 02:59:39;;;;;;;;;29.00;24.75;;;;;9.99;67.29;101911.56;5082640;27;45353;-74
2021/10/18 03:02:05;;;;;;;;;37.50;31.75;;;;;10.00;67.59;101911.53;5082200;28;45318;-74
2021/10/18 03:04:30;;;;;;;;;30.50;28.75;;;;;10.00;67.57;101902.81;5081666;28;45347;-74
2021/10/18 03:06:55;;;;;;;;;36.50;31.50;;;;;9.99;67.46;101904.56;5082422;28;46321;-74
2021/10/18 03:09:21;;;;;;;;;28.75;25.50;;;;;9.99;67.41;101899.31;5082046;28;45449;-74
2021/10/18 03:11:46;;;;;;;;;29.50;28.25;;;;;9.99;67.34;101895.81;5082210;28;45704;-74
2021/10/18 03:14:11;;;;;;;;;33.50;30.25;;;;;9.97;67.58;101897.59;5081826;28;45445;-74
2021/10/18 03:16:37;;;;;;;;;30.50;29.75;;;;;9.99;67.50;101899.31;5081918;28;45342;-74
2021/10/18 03:19:02;;;;;;;;;32.75;28.50;;;;;9.97;67.49;101893.22;5082366;27;45303;-74
2021/10/18 03:21:28;;;;;;;;;33.25;30.00;;;;;9.99;67.40;101901.06;5081249;28;45309;-74
2021/10/18 03:23:53;;;;;;;;;40.75;32.25;;;;;9.98;67.58;101899.31;5082451;28;45311;-74
2021/10/18 03:26:19;;;;;;;;;31.75;27.25;;;;;9.94;67.45;101898.47;5082020;28;46290;-74
2021/10/18 03:28:44;;;;;;;;;33.00;29.50;;;;;9.97;67.19;101908.09;5082357;27;45330;-75
2021/10/18 03:31:10;;;;;;;;;37.50;29.50;;;;;9.97;67.27;101908.97;5081507;28;45235;-76
2021/10/18 03:33:40;;;;;;;;;26.50;26.00;;;;;9.97;67.42;101913.34;5081252;28;46408;-76
2021/10/18 03:36:07;;;;;;;;;35.75;32.00;;;;;9.96;67.50;101917.72;5082045;28;46307;-76
2021/10/18 03:38:33;;;;;;;;;32.00;28.75;;;;;9.92;67.78;101907.28;5088693;27;46029;-76
2021/10/18 03:41:00;;;;;;;;;33.75;28.50;;;;;9.92;67.55;101909.91;5071434;27;45465;-76
2021/10/18 03:43:26;;;;;;;;;27.50;25.00;;;;;9.92;67.67;101912.53;5083706;27;45320;-76
2021/10/18 03:45:51;;;;;;;;;37.75;32.00;;;;;9.86;67.73;101909.06;5082372;27;46458;-76
2021/10/18 03:48:17;;;;;;;;;29.50;28.75;;;;;9.85;67.76;101909.09;5081409;28;45181;-78
2021/10/18 03:50:43;;;;;;;;;31.25;27.75;;;;;9.85;67.35;101915.19;5085665;27;45377;-77
2021/10/18 03:53:08;;;;;;;;;31.00;27.25;;;;;9.83;67.36;101919.59;5086211;27;45600;-76
2021/10/18 03:55:34;;;;;;;;;33.75;28.00;;;;;9.79;67.56;101920.53;5081588;28;45366;-76
2021/10/18 03:57:59;;;;;;;;;29.25;25.50;;;;;9.76;67.71;101916.19;5081549;28;45487;-76
2021/10/18 04:00:25;;;;;;;;;30.50;28.50;;;;;9.81;67.76;101923.13;5081111;28;45401;-76
2021/10/18 04:02:51;;;;;;;;;27.50;25.00;;;;;9.78;67.70;101924.91;5081079;28;45422;-77
2021/10/18 04:05:16;;;;;;;;;30.25;26.25;;;;;9.75;67.67;101918.84;5081514;27;45537;-76
2021/10/18 04:07:46;;;;;;;;;33.75;28.00;;;;;9.75;67.78;101937.22;5063492;28;45630;-77
2021/10/18 04:10:11;;;;;;;;;29.25;27.25;;;;;9.78;67.85;101931.91;5080907;28;45156;-78
2021/10/18 04:12:36;;;;;;;;;29.50;26.75;;;;;9.78;67.72;101927.53;5068503;28;46390;-77
2021/10/18 04:15:03;;;;;;;;;23.00;23.00;;;;;9.74;67.71;101922.34;5066790;27;45608;-76
2021/10/18 04:17:28;;;;;;;;;24.25;23.25;;;;;9.72;67.63;101924.09;5081112;28;46054;-76
2021/10/18 04:19:53;;;;;;;;;32.50;28.00;;;;;9.79;67.65;101933.66;5080606;28;45353;-76
2021/10/18 04:22:19;;;;;;;;;30.00;27.25;;;;;9.79;67.46;101934.53;5073884;28;45511;-76
2021/10/18 04:24:44;;;;;;;;;25.75;23.75;;;;;9.75;67.68;101929.34;5082374;27;46158;-76
2021/10/18 04:27:09;;;;;;;;;24.50;24.25;;;;;9.77;68.01;101944.19;5084481;27;45342;-76
2021/10/18 04:29:35;;;;;;;;;29.50;25.25;;;;;9.74;67.48;101938.09;5081402;28;45275;-76
2021/10/18 04:32:00;;;;;;;;;31.75;26.50;;;;;9.77;67.74;101948.56;5080396;28;45329;-76
2021/10/18 04:34:26;;;;;;;;;29.00;23.75;;;;;9.73;67.91;101952.97;5083090;27;45386;-76
2021/10/18 04:36:53;;;;;;;;;29.25;26.75;;;;;9.74;67.71;101949.47;5080107;28;45264;-76
2021/10/18 04:39:20;;;;;;;;;24.25;22.00;;;;;9.75;67.95;101952.97;5081394;28;45293;-79
2021/10/18 04:41:45;;;;;;;;;23.25;21.75;;;;;9.70;67.77;101952.13;5080456;28;45544;-77
2021/10/18 04:44:10;;;;;;;;;29.75;25.50;;;;;9.72;68.04;101963.50;5081084;27;45496;-78
2021/10/18 04:46:36;;;;;;;;;32.25;28.75;;;;;9.73;68.08;101963.47;5080742;28;45193;-77
2021/10/18 04:49:02;;;;;;;;;34.75;26.50;;;;;9.72;68.11;101963.50;5076508;28;45247;-78
2021/10/18 04:51:27;;;;;;;;;27.00;22.25;;;;;9.68;67.87;101953.00;5065457;28;46145;-77
2021/10/18 04:53:52;;;;;;;;;27.00;23.75;;;;;9.70;68.03;101958.25;5079863;28;45713;-78
2021/10/18 04:56:18;;;;;;;;;31.50;26.75;;;;;9.67;67.72;101964.41;5080643;28;45314;-79
2021/10/18 04:58:43;;;;;;;;;28.25;24.25;;;;;9.68;67.83;101963.50;5080023;28;45257;-81
2021/10/18 05:01:08;;;;;;;;;25.75;25.00;;;;;9.66;67.83;101957.41;5083366;27;45389;-81
2021/10/18 05:03:34;;;;;;;;;24.50;21.75;;;;;9.64;67.73;101963.56;5080002;28;45365;-78
2021/10/18 05:05:59;;;;;;;;;25.75;22.00;;;;;9.66;67.97;101978.41;5062419;28;45488;-80
2021/10/18 05:08:25;;;;;;;;;22.25;21.50;;;;;9.66;68.06;101978.41;5076610;28;45444;-75
2021/10/18 05:10:50;;;;;;;;;26.25;26.25;;;;;9.64;68.37;101980.19;5075756;27;45330;-76
2021/10/18 05:13:15;;;;;;;;;26.75;23.75;;;;;9.64;67.99;101985.44;5092810;27;45355;-76
2021/10/18 05:15:42;;;;;;;;;33.75;26.00;;;;;9.66;68.10;101983.66;5079079;28;45305;-74
2021/10/18 05:18:07;;;;;;;;;26.25;23.75;;;;;9.66;68.22;101994.16;5078504;28;45608;-74
2021/10/18 05:20:34;;;;;;;;;28.25;26.50;;;;;9.66;68.19;101999.41;5059475;28;47117;-74
2021/10/18 05:23:00;;;;;;;;;29.75;25.25;;;;;9.65;68.27;101991.56;5071839;27;45507;-75
2021/10/18 05:25:26;;;;;;;;;29.75;26.75;;;;;9.66;68.01;101988.91;5070381;28;45419;-75
2021/10/18 05:27:51;;;;;;;;;29.25;25.25;;;;;9.64;68.35;101984.56;5080108;28;45291;-74
2021/10/18 05:30:19;;;;;;;;;26.75;23.75;;;;;9.63;68.27;101986.31;5078686;28;45211;-75
2021/10/18 05:32:45;;;;;;;;;28.50;28.25;;;;;9.63;68.46;101988.94;5061772;28;46187;-75
2021/10/18 05:35:11;;;;;;;;;26.50;23.25;;;;;9.64;68.21;101982.81;5077458;28;45806;-75
2021/10/18 05:37:44;;;;;;;;;27.75;24.25;;;;;9.64;67.80;101988.06;5080336;28;45326;-75
2021/10/18 05:40:11;;;;;;;;;25.75;22.50;;;;;9.64;68.13;101985.44;5061821;28;45607;-75
2021/10/18 05:42:36;;;;;;;;;27.50;24.25;;;;;9.64;68.43;101989.81;5080031;28;45505;-75
2021/10/18 05:45:02;;;;;;;;;22.75;20.00;;;;;9.62;68.34;101986.31;5054963;28;46159;-75
2021/10/18 05:47:27;;;;;;;;;30.25;23.50;;;;;9.63;68.43;101994.19;5061581;28;45392;-74
2021/10/18 05:49:53;;;;;;;;;26.50;22.00;;;;;9.61;68.45;101990.69;5077941;27;45359;-74
2021/10/18 05:52:18;;;;;;;;;23.25;21.25;;;;;9.62;68.31;101997.72;5080160;27;46435;-74
2021/10/18 05:54:44;;;;;;;;;26.50;24.00;;;;;9.60;68.49;101994.22;5083068;27;45197;-74
2021/10/18 05:57:09;;;;;;;;;26.25;23.75;;;;;9.61;68.58;101992.44;5086034;27;45472;-73
2021/10/18 05:59:35;;;;;;;;;26.50;22.75;;;;;9.62;68.64;101991.56;5077099;27;45176;-74
2021/10/18 06:02:00;;;;;;;;;26.50;21.75;;;;;9.55;67.94;101981.16;5079531;28;45265;-74
2021/10/18 06:04:25;;;;;;;;;23.00;21.00;;;;;9.58;68.53;101988.09;5060711;28;45350;-74
2021/10/18 06:06:51;;;;;;;;;27.75;23.50;;;;;9.57;67.97;101989.88;5078996;27;45618;-74
2021/10/18 06:09:16;;;;;;;;;25.75;21.50;;;;;9.57;68.45;101996.88;5079879;28;45318;-74
2021/10/18 06:11:42;;;;;;;;;24.25;21.00;;;;;9.57;68.35;102004.75;5061039;27;47195;-73
2021/10/18 06:14:08;;;;;;;;;29.00;25.00;;;;;9.56;68.59;101998.63;5062374;28;45365;-74
2021/10/18 06:16:34;;;;;;;;;29.25;24.25;;;;;9.54;68.50;102002.13;5072102;28;45343;-74
2021/10/18 06:18:59;;;;;;;;;26.50;22.50;;;;;9.57;68.32;102004.75;5080417;28;45300;-74
2021/10/18 06:21:25;;;;;;;;;33.25;26.50;;;;;9.58;68.69;102011.72;5083122;27;45496;-74
2021/10/18 06:23:50;;;;;;;;;31.25;27.00;;;;;9.57;68.79;102004.75;5083198;28;45582;-74
2021/10/18 06:26:15;;;;;;;;;26.50;23.25;;;;;9.60;68.52;102012.59;5070889;27;45548;-74
2021/10/18 06:28:41;;;;;;;;;29.50;22.25;;;;;9.60;68.73;102020.47;5062209;28;47125;-74
2021/10/18 06:31:08;;;;;;;;;25.00;22.00;;;;;9.60;68.77;102012.59;5078288;28;45609;-74
2021/10/18 06:33:34;;;;;;;;;26.50;25.50;;;;;9.61;68.63;102014.31;5070983;28;45287;-74
2021/10/18 06:35:59;;;;;;;;;23.00;22.00;;;;;9.62;68.66;102015.22;5052262;28;45257;-74
2021/10/18 06:38:25;;;;;;;;;25.25;22.75;;;;;9.63;68.75;102024.84;5075299;28;45333;-74
2021/10/18 06:40:51;;;;;;;;;28.00;23.25;;;;;9.63;68.75;102012.56;5061635;28;45409;-74
2021/10/18 06:43:18;;;;;;;;;25.25;22.75;;;;;9.65;68.85;102013.44;5059844;28;45528;-74
2021/10/18 06:45:44;;;;;;;;;26.00;24.75;;;;;9.66;69.10;102015.16;5060969;28;45568;-74
2021/10/18 06:48:12;;;;;;;;;32.00;27.75;;;;;9.70;69.13;102021.28;5045202;28;47038;-74
2021/10/18 06:50:38;;;;;;;;;25.75;24.00;;;;;9.71;68.94;102022.13;5062553;28;45680;-74
2021/10/18 06:53:06;;;;;;;;;30.75;25.50;;;;;9.73;68.79;102021.22;5062553;28;45741;-74
2021/10/18 06:55:33;;;;;;;;;26.25;24.75;;;;;9.75;68.82;102024.69;5041614;28;45513;-74
2021/10/18 06:57:59;;;;;;;;;39.00;33.75;;;;;9.79;68.92;102030.81;5043740;28;46107;-74
2021/10/18 07:00:25;;;;;;;;;39.00;30.50;;;;;9.77;69.19;102022.97;5061543;28;45343;-74
2021/10/18 07:02:50;;;;;;;;;32.75;25.25;;;;;9.81;69.16;102029.03;5074177;28;45357;-74
2021/10/18 07:05:16;;;;;;;;;26.00;23.75;;;;;9.86;68.97;102029.88;5062204;28;45371;-74
2021/10/18 07:07:41;;;;;;;;;30.00;25.25;;;;;9.87;68.88;102029.00;5062407;28;45333;-74
2021/10/18 07:10:07;;;;;;;;;22.50;21.50;;;;;9.90;68.95;102023.69;5062099;28;45469;-75
2021/10/18 07:12:34;;;;;;;;;28.50;26.00;;;;;9.94;69.26;102023.69;5042712;28;46085;-75
2021/10/18 07:15:01;;;;;;;;;26.25;24.50;;;;;10.00;69.23;102039.41;5060940;28;45242;-75
2021/10/18 07:17:27;;;;;;;;;29.50;25.00;;;;;10.03;69.25;102039.34;5043473;28;45878;-75
2021/10/18 07:19:57;;;;;;;;;26.25;23.50;;;;;10.07;68.87;102051.59;5058941;28;45384;-75
2021/10/18 07:22:26;;;;;;;;;26.75;22.75;;;;;10.10;69.00;102050.69;5061385;28;45326;-75
2021/10/18 07:24:53;;;;;;;;;26.50;25.25;;;;;10.12;69.14;102049.75;5060462;28;45331;-75
2021/10/18 07:27:19;;;;;;;;;26.00;25.75;;;;;10.16;69.36;102044.47;5059422;28;45744;-75
2021/10/18 07:29:45;;;;;;;;;33.00;26.25;;;;;10.20;69.37;102040.91;5066064;28;46427;-75
2021/10/18 07:32:10;;;;;;;;;25.50;22.25;;;;;10.21;69.05;102033.03;5065073;28;45537;-75
2021/10/18 07:34:36;;;;;;;;;34.50;29.00;;;;;10.27;69.11;102039.13;5077662;28;45372;-75
2021/10/18 07:37:02;;;;;;;;;29.50;26.00;;;;;10.32;69.41;102039.94;5060658;28;45547;-75
2021/10/18 07:39:28;;;;;;;;;29.00;28.75;;;;;10.35;69.12;102040.75;5061127;28;46118;-75
2021/10/18 07:41:56;;;;;;;;;32.00;28.75;;;;;10.42;69.18;102035.47;5042988;28;45545;-75
2021/10/18 07:44:26;;;;;;;;;29.75;25.25;;;;;10.45;69.31;102040.66;5061606;28;45349;-75
2021/10/18 07:46:56;;;;;;;;;30.75;25.50;;;;;10.52;69.36;102041.50;5060556;28;45426;-75
2021/10/18 07:49:23;;;;;;;;;32.25;27.25;;;;;10.54;69.24;102040.56;5060512;28;45252;-75
2021/10/18 07:51:49;;;;;;;;;31.25;27.25;;;;;10.59;69.27;102037.91;5060840;28;45741;-75
2021/10/18 07:54:14;;;;;;;;;29.75;26.00;;;;;10.62;68.90;102029.13;5061545;28;45322;-75
2021/10/18 07:56:40;;;;;;;;;28.75;26.50;;;;;10.66;69.18;102022.94;5060924;28;45311;-75
2021/10/18 07:59:06;;;;;;;;;32.75;30.50;;;;;10.70;69.01;102029.88;5060710;28;46414;-75
2021/10/18 08:01:31;;;;;;;;;32.75;27.75;;;;;10.72;69.15;102025.47;5060764;28;45343;-75
2021/10/18 08:03:56;;;;;;;;;28.25;25.75;;;;;10.79;69.18;102042.91;5061219;28;45299;-75
2021/10/18 08:06:22;;;;;;;;;30.50;27.00;;;;;10.79;68.98;102032.38;5060505;28;45404;-75
2021/10/18 08:08:50;;;;;;;;;32.50;28.50;;;;;10.86;69.06;102034.94;5061085;28;45607;-75
2021/10/18 08:11:16;;;;;;;;;32.50;27.50;;;;;10.91;69.14;102048.91;5061135;28;45715;-75
2021/10/18 08:13:41;;;;;;;;;25.25;22.50;;;;;10.96;68.95;102044.47;5061441;28;45422;-75
2021/10/18 08:16:07;;;;;;;;;29.25;27.00;;;;;11.00;69.16;102042.66;5060475;28;45187;-75
2021/10/18 08:18:32;;;;;;;;;30.25;27.50;;;;;11.03;69.16;102045.25;5060651;28;45351;-75
2021/10/18 08:20:58;;;;;;;;;26.50;26.50;;;;;11.12;69.22;102049.50;5061446;28;45224;-75
2021/10/18 08:23:23;;;;;;;;;30.75;29.50;;;;;11.17;69.29;102057.31;5060613;28;45255;-75
2021/10/18 08:25:49;;;;;;;;;38.25;32.25;;;;;11.21;69.20;102056.41;5040776;28;46166;-75
2021/10/18 08:28:14;;;;;;;;;33.25;28.50;;;;;11.26;68.80;102062.44;5060880;28;45569;-75
2021/10/18 08:30:39;;;;;;;;;27.50;26.25;;;;;11.30;69.18;102065.91;5061047;28;45280;-75
2021/10/18 08:33:05;;;;;;;;;33.50;29.25;;;;;11.34;69.21;102071.13;5060232;28;45322;-75
2021/10/18 08:35:32;;;;;;;;;29.75;26.75;;;;;11.38;69.13;102071.06;5059419;28;45322;-75
2021/10/18 08:45:47;;;;;;;;;28.25;23.50;;;;;11.63;69.53;102060.16;5059776;28;45204;-75
2021/10/18 08:48:12;;;;;;;;;30.00;23.75;;;;;11.67;69.31;102053.94;5060459;28;46526;-75
2021/10/18 08:50:38;;;;;;;;;22.75;21.75;;;;;11.77;69.22;102065.19;5059899;28;45209;-75
2021/10/18 08:53:04;;;;;;;;;25.75;24.25;;;;;11.84;69.29;102058.06;5040431;28;45524;-75
2021/10/18 08:55:37;;;;;;;;;24.75;24.50;;;;;11.92;69.24;102054.41;5052186;28;47174;-75
2021/10/18 08:58:04;;;;;;;;;26.75;26.25;;;;;12.02;69.04;102051.59;5063843;28;45517;-76
2021/10/18 09:00:51;;;;;;;;;26.75;25.75;;;;;12.09;69.11;102052.34;5047646;28;45301;-75
2021/10/18 09:03:22;;;;;;;;;29.25;26.25;;;;;12.14;68.99;102038.25;5060336;28;45336;-75
2021/10/18 09:05:49;;;;;;;;;29.00;27.50;;;;;12.21;68.81;102033.72;5060099;28;45554;-75
2021/10/18 09:08:33;;;;;;;;;34.00;29.25;;;;;12.30;69.17;102037.94;5060462;28;46067;-75
2021/10/18 09:11:29;;;;;;;;;31.00;27.75;;;;;12.37;68.80;102028.16;5059588;28;45402;-75
2021/10/18 09:13:54;;;;;;;;;32.50;27.75;;;;;12.43;69.06;102035.06;5045785;28;45493;-75
2021/10/18 09:16:31;;;;;;;;;31.00;28.33;;;;;12.50;69.03;102039.31;5060046;28;45333;-75
2021/10/18 09:19:05;;;;;;;;;27.25;21.00;;;;;12.57;68.85;102040.91;5059843;28;45544;-75
2021/10/18 09:21:42;;;;;;;;;26.00;21.75;;;;;12.66;68.60;102031.97;5041297;28;45434;-75
2021/10/18 09:24:09;;;;;;;;;26.50;25.50;;;;;12.73;68.75;102027.41;5060529;28;45306;-76
2021/10/18 09:26:37;;;;;;;;;28.25;24.25;;;;;12.81;68.50;102022.84;5059871;28;45585;-75
2021/10/18 09:29:07;;;;;;;;;32.75;27.50;;;;;12.88;68.89;102030.63;5041845;28;48165;-75
2021/10/18 09:31:33;;;;;;;;;28.50;26.00;;;;;12.96;68.65;102020.78;5058750;28;45334;-75
2021/10/18 09:34:07;;;;;;;;;35.25;30.75;;;;;13.04;68.46;102016.16;5059938;28;45743;-76
2021/10/18 09:36:33;;;;;;;;;32.50;30.00;;;;;13.11;68.72;102013.41;5059702;28;45280;-76
2021/10/18 09:39:21;;;;;;;;;28.00;25.50;;;;;13.19;68.71;102014.06;5041921;28;48273;-76
2021/10/18 09:42:05;;;;;;;;;31.25;28.00;;;;;13.25;68.85;102021.00;5058932;28;45280;-75
2021/10/18 09:45:28;;;;;;;;;27.25;26.25;;;;;13.32;68.81;102016.44;5058618;28;45489;-76
2021/10/18 10:52:42;;;;;;;;;25.75;22.50;;;;;14.46;67.89;102028.50;5058349;28;45438;-76
2021/10/18 10:55:19;;;;;;;;;23.75;20.50;;;;;14.48;68.24;102014.31;5035263;28;45582;-76
2021/10/18 10:57:45;;;;;;;;;25.00;24.00;;;;;14.51;68.14;102019.53;5058750;28;45418;-76
2021/10/18 11:00:29;;;;;;;;;23.00;21.50;;;;;14.59;67.81;102010.50;5060635;28;45448;-75
2021/10/18 11:03:20;;;;;;;;;23.00;20.00;;;;;14.67;68.03;102007.63;5061479;28;45298;-76
2021/10/18 11:06:06;;;;;;;;;27.50;23.25;;;;;14.78;67.85;102010.78;5060857;28;45221;-76
2021/10/18 11:08:36;;;;;;;;;22.50;20.25;;;;;14.84;67.26;101993.88;5048800;28;45330;-76
2021/10/18 11:11:07;;;;;;;;;22.25;21.00;;;;;14.97;67.60;102007.59;5060877;28;45737;-76
2021/10/18 11:13:54;;;;;;;;;26.50;23.25;;;;;15.05;67.27;101996.78;5061932;28;45300;-76
2021/10/18 11:16:23;;;;;;;;;21.75;20.00;;;;;15.12;67.32;101987.72;5060269;28;45466;-75
2021/10/18 11:18:51;;;;;;;;;19.25;17.50;;;;;15.19;66.98;101983.09;5060989;28;46161;-76
2021/10/18 11:21:21;;;;;;;;;19.50;19.00;;;;;15.26;67.42;101984.59;5061840;28;45237;-76
2021/10/18 11:24:04;;;;;;;;;22.00;21.25;;;;;15.36;67.38;101977.22;5060972;28;45333;-76
2021/10/18 11:26:36;;;;;;;;;22.25;20.50;;;;;15.43;66.59;101982.34;5061539;28;45545;-76
2021/10/18 11:29:05;;;;;;;;;18.50;18.50;;;;;15.48;66.75;101983.03;5061891;28;46618;-76
2021/10/18 11:31:34;;;;;;;;;20.75;18.00;;;;;15.52;67.14;101985.53;5061690;28;45336;-76
2021/10/18 11:34:14;;;;;;;;;23.75;20.00;;;;;15.59;66.15;101980.88;5061069;28;45576;-76
2021/10/18 11:36:42;;;;;;;;;16.75;16.25;;;;;15.62;66.54;101979.91;5061579;28;45363;-75
2021/10/18 11:39:17;;;;;;;;;20.75;18.25;;;;;15.68;66.68;101990.28;5061947;28;45366;-75
2021/10/18 11:42:09;;;;;;;;;19.50;16.00;;;;;15.73;66.40;101987.47;5059874;28;45636;-76
2021/10/18 11:44:55;;;;;;;;;24.25;16.75;;;;;15.76;65.90;101976.78;5043898;28;45501;-76
2021/10/18 11:47:23;;;;;;;;;29.75;29.25;;;;;15.81;66.20;101980.13;5056865;28;45372;-75
2021/10/18 11:50:23;;;;;;;;;20.75;18.75;;;;;15.85;65.85;101975.59;5052412;28;45450;-75
2021/10/18 11:52:53;;;;;;;;;19.75;18.75;;;;;15.89;66.63;101971.91;5061748;28;45374;-76
2021/10/18 11:55:25;;;;;;;;;17.25;16.50;;;;;15.94;66.10;101966.44;5042346;28;45362;-75
2021/10/18 11:57:53;;;;;;;;;17.75;15.25;;;;;15.97;66.46;101959.25;5042929;28;46459;-75
2021/10/18 12:00:21;;;;;;;;;18.50;17.00;;;;;16.01;65.54;101943.22;5060789;28;46611;-75
2021/10/18 12:02:47;;;;;;;;;20.25;18.00;;;;;16.05;66.11;101934.28;5061314;28;45444;-75
2021/10/18 12:05:14;;;;;;;;;19.50;16.25;;;;;16.09;66.08;101930.56;5060665;28;45710;-75
2021/10/18 12:07:47;;;;;;;;;19.50;15.50;;;;;16.13;66.79;101934.84;5061055;28;45462;-75
2021/10/18 12:10:23;;;;;;;;;13.75;12.75;;;;;16.16;66.00;101925.91;5060895;28;46547;-75
2021/10/18 12:13:11;;;;;;;;;21.25;19.00;;;;;16.17;66.64;101932.94;5061188;28;45562;-75
2021/10/18 12:15:49;;;;;;;;;16.75;14.50;;;;;16.20;65.89;101920.41;5038542;28;45503;-75
2021/10/18 12:18:17;;;;;;;;;17.00;16.50;;;;;16.24;66.48;101912.34;5060899;28;45439;-75
2021/10/18 12:20:46;;;;;;;;;15.50;12.75;;;;;16.27;65.50;101912.25;5060953;28;45411;-75
2021/10/18 12:23:23;;;;;;;;;20.25;19.25;;;;;16.30;66.55;101905.00;5060259;28;45810;-75
2021/10/18 12:26:00;;;;;;;;;18.50;18.50;;;;;16.34;65.47;101908.41;5060658;28;45334;-75
2021/10/18 12:28:47;;;;;;;;;13.75;12.75;;;;;16.37;65.35;101889.72;5061163;28;45313;-75